Time;durP1;ratioP1;P1;durP2;ratioP2;P2;SDS_P1;SDS_P2;PMS_P1;PMS_P2;Temp;Humidity;BMP_temperature;BMP_pressure;BME280_temperature;BME280_humidity;BME280_pressure;Samples;Min_cycle;Max_cycle;Signal;HPM_P1;HPM_P2
2021/12/17 00:04:39;;;;;;;58.47;22.38;;;;;;;-141.50;100.00;63355.56;4945087;29;20086;-82
2021/12/17 00:07:09;;;;;;;50.92;21.38;;;;;;;-141.50;100.00;63355.56;4945294;29;20158;-84
2021/12/17 00:09:37;;;;;;;50.60;21.02;;;;;;;-141.50;100.00;63355.56;4942680;29;20140;-83
2021/12/17 00:12:09;;;;;;;56.90;21.80;;;;;;;-141.50;100.00;63355.56;4942074;29;20076;-83
2021/12/17 00:14:39;;;;;;;47.47;21.20;;;;;;;-141.50;100.00;63355.56;4943787;29;20122;-82
2021/12/17 00:17:11;;;;;;;58.95;22.92;;;;;;;-141.50;100.00;63355.56;4945476;29;20134;-84
2021/12/17 00:50:57;;;;;;;56.05;24.77;;;;;;;-141.50;100.00;63355.56;4945864;29;20101;-83
2021/12/17 00:52:40;;;;;;;62.45;25.45;;;;;;;-141.50;100.00;63355.56;4949432;28;20047;-83
2021/12/17 00:55:08;;;;;;;53.67;24.23;;;;;;;-141.50;100.00;63355.56;4946875;29;20043;-83
2021/12/17 00:57:39;;;;;;;57.95;24.98;;;;;;;-141.50;100.00;63355.56;4945129;29;20075;-84
2021/12/17 01:00:11;;;;;;;59.30;25.85;;;;;;;-141.50;100.00;63355.56;4946822;28;20185;-82
2021/12/17 01:02:38;;;;;;;63.75;27.10;;;;;;;-141.50;100.00;63355.56;4960363;29;20567;-83
2021/12/17 01:05:10;;;;;;;61.95;26.83;;;;;;;-141.50;100.00;63355.56;4959132;28;20047;-84
2021/12/17 01:07:40;;;;;;;62.00;26.50;;;;;;;-141.50;100.00;63355.56;4945332;29;20052;-83
2021/12/17 01:10:11;;;;;;;60.60;27.15;;;;;;;-141.50;100.00;63355.56;4945419;29;20051;-83
2021/12/17 01:12:38;;;;;;;56.67;26.05;;;;;;;-141.50;100.00;63355.56;4943990;29;20065;-82
2021/12/17 01:15:09;;;;;;;69.80;28.25;;;;;;;-141.50;100.00;63355.56;4945862;29;20048;-83
2021/12/17 01:17:40;;;;;;;63.85;26.80;;;;;;;-141.50;100.00;63355.56;4945263;29;20497;-83
2021/12/17 01:25:22;;;;;;;64.05;26.08;;;;;;;-141.50;100.00;63355.56;4947095;29;20111;-83
2021/12/17 01:36:05;;;;;;;;;;;;;;;-141.50;100.00;63355.56;4944877;29;20063;-82
2021/12/17 01:43:48;;;;;;;57.20;25.20;;;;;;;-141.50;100.00;63355.56;4945312;29;20051;-83
2021/12/17 01:46:23;;;;;;;58.45;25.63;;;;;;;-141.50;100.00;63355.56;4959900;28;20087;-84
2021/12/17 01:49:02;;;;;;;57.60;25.50;;;;;;;-141.50;100.00;63355.56;4944211;29;20445;-84
2021/12/17 01:59:52;;;;;;;60.53;26.00;;;;;;;-141.50;100.00;63355.56;4963901;28;20059;-82
2021/12/17 02:02:19;;;;;;;58.70;25.45;;;;;;;-141.50;100.00;63355.56;4961637;28;20075;-82
2021/12/17 02:04:46;;;;;;;59.55;25.88;;;;;;;-141.50;100.00;63355.56;4944528;29;20055;-83
2021/12/17 02:07:12;;;;;;;65.20;27.95;;;;;;;-141.50;100.00;63355.56;4959930;29;20051;-83
2021/12/17 02:21:07;;;;;;;68.07;27.05;;;;;;;-141.50;100.00;63355.56;4965237;28;20051;-84
2021/12/17 02:31:59;;;;;;;57.67;25.83;;;;;;;-141.50;100.00;63355.56;4973004;28;20085;-82
2021/12/17 02:37:00;;;;;;;61.22;25.67;;;;;;;-141.50;100.00;63355.56;4962459;28;20047;-82
2021/12/17 02:47:29;;;;;;;61.35;26.35;;;;;;;-141.50;100.00;63355.56;4966188;28;20066;-84
2021/12/17 02:49:56;;;;;;;55.17;24.95;;;;;;;-141.50;100.00;63355.56;4963817;28;20079;-84
2021/12/17 02:52:27;;;;;;;62.90;26.25;;;;;;;-141.50;100.00;63355.56;4964826;28;20079;-84
2021/12/17 02:54:56;;;;;;;62.70;25.77;;;;;;;-141.50;100.00;63355.56;4966298;28;20058;-83
2021/12/17 02:57:24;;;;;;;61.53;27.13;;;;;;;-141.50;100.00;63355.56;4964218;28;20381;-83
2021/12/17 02:59:51;;;;;;;64.15;26.60;;;;;;;-141.50;100.00;63355.56;4964948;28;20082;-83
2021/12/17 03:02:23;;;;;;;60.45;26.45;;;;;;;-141.50;100.00;63355.56;4963077;28;20178;-83
2021/12/17 03:04:50;;;;;;;56.95;26.17;;;;;;;-141.50;100.00;63355.56;4962929;28;20051;-83
2021/12/17 03:07:17;;;;;;;59.08;26.27;;;;;;;-141.50;100.00;63355.56;4964402;29;20051;-84
2021/12/17 03:12:23;;;;;;;61.97;27.95;;;;;;;-141.50;100.00;63355.56;4967362;28;20079;-83
2021/12/17 03:15:02;;;;;;;63.15;26.60;;;;;;;-141.50;100.00;63355.56;4981410;28;20062;-84
2021/12/17 03:18:21;;;;;;;68.97;27.73;;;;;;;-141.50;100.00;63355.56;4965482;28;20103;-83
2021/12/17 03:25:50;;;;;;;69.45;27.15;;;;;;;-141.50;100.00;63355.56;4938976;29;20051;-83
2021/12/17 03:28:16;;;;;;;70.78;28.15;;;;;;;-141.50;100.00;63355.56;4954672;28;20051;-83
2021/12/17 03:30:43;;;;;;;71.20;28.45;;;;;;;-141.50;100.00;63355.56;4951279;29;20056;-84
2021/12/17 03:33:10;;;;;;;66.75;28.10;;;;;;;-141.50;100.00;63355.56;4949854;29;20051;-83
2021/12/17 03:35:37;;;;;;;66.80;28.50;;;;;;;-141.50;100.00;63355.56;4963666;28;20177;-84
2021/12/17 03:38:04;;;;;;;79.70;29.15;;;;;;;-141.50;100.00;63355.56;4963147;28;20056;-84
2021/12/17 03:40:33;;;;;;;69.30;28.48;;;;;;;-141.50;100.00;63355.56;4946451;29;20066;-84
2021/12/17 03:43:03;;;;;;;72.03;27.83;;;;;;;-141.50;100.00;63355.56;4947915;29;20103;-83
2021/12/17 03:45:30;;;;;;;69.43;27.42;;;;;;;-141.50;100.00;63355.56;4947849;29;20056;-84
2021/12/17 03:47:57;;;;;;;70.30;27.80;;;;;;;-141.50;100.00;63355.56;4948353;29;20161;-84
2021/12/17 03:50:24;;;;;;;69.15;26.63;;;;;;;-141.50;100.00;63355.56;4959429;28;20057;-83
2021/12/17 03:52:50;;;;;;;67.40;27.48;;;;;;;-141.50;100.00;63355.56;4946151;29;20051;-84
2021/12/17 03:55:17;;;;;;;68.20;26.98;;;;;;;-141.50;100.00;63355.56;4961888;28;20174;-83
2021/12/17 03:57:44;;;;;;;66.43;25.95;;;;;;;-141.50;100.00;63355.56;4946628;29;20087;-82
2021/12/17 04:00:12;;;;;;;71.68;27.58;;;;;;;-141.50;100.00;63355.56;4946153;29;20056;-82
2021/12/17 04:02:39;;;;;;;65.15;27.42;;;;;;;-141.50;100.00;63355.56;4959820;28;20120;-81
2021/12/17 04:05:05;;;;;;;68.53;27.50;;;;;;;-141.50;100.00;63355.56;4943481;29;20063;-83
2021/12/17 04:07:32;;;;;;;69.68;27.23;;;;;;;-141.50;100.00;63355.56;4959469;28;20060;-84
2021/12/17 04:09:59;;;;;;;66.72;26.35;;;;;;;-141.50;100.00;63355.56;4946290;29;20055;-84
2021/12/17 04:12:40;;;;;;;64.85;26.55;;;;;;;-141.50;100.00;63355.56;4945993;29;20048;-85
2021/12/17 04:15:08;;;;;;;62.10;25.58;;;;;;;-141.50;100.00;63355.56;4945882;29;20052;-84
2021/12/17 04:17:42;;;;;;;68.90;26.35;;;;;;;-141.50;100.00;63355.56;4954214;29;20050;-83
2021/12/17 04:20:09;;;;;;;68.68;26.27;;;;;;;-141.50;100.00;63355.56;4953954;28;20122;-83
2021/12/17 04:22:36;;;;;;;71.72;28.85;;;;;;;-141.50;100.00;63355.56;4951634;29;20047;-83
2021/12/17 04:25:03;;;;;;;70.57;27.98;;;;;;;-141.50;100.00;63355.56;4948592;29;20051;-84
2021/12/17 04:27:30;;;;;;;71.47;27.17;;;;;;;-141.50;100.00;63355.56;4952958;29;20051;-81
2021/12/17 04:29:57;;;;;;;68.30;26.77;;;;;;;-141.50;100.00;63355.56;4964605;29;20467;-83
2021/12/17 04:32:24;;;;;;;71.13;26.50;;;;;;;-141.50;100.00;63355.56;4964203;28;20066;-83
2021/12/17 04:34:51;;;;;;;71.50;28.27;;;;;;;-141.50;100.00;63355.56;4958507;28;20110;-82
2021/12/17 04:37:18;;;;;;;67.65;27.20;;;;;;;-141.50;100.00;63355.56;4953230;28;20051;-83
2021/12/17 04:39:45;;;;;;;64.82;25.88;;;;;;;-141.50;100.00;63355.56;4957212;28;20070;-82
2021/12/17 04:42:40;;;;;;;66.47;26.90;;;;;;;-141.50;100.00;63355.56;4931587;28;20147;-82
2021/12/17 04:45:01;;;;;;;67.38;27.73;;;;;;;-141.50;100.00;63355.56;4924428;29;20092;-81
2021/12/17 04:58:28;;;;;;;79.55;28.75;;;;;;;-141.50;100.00;63355.56;4927740;29;20048;-84
2021/12/17 05:01:01;;;;;;;77.13;29.55;;;;;;;-141.50;100.00;63355.56;4940723;29;20375;-82
2021/12/17 05:03:28;;;;;;;80.40;28.85;;;;;;;-141.50;100.00;63355.56;4924675;29;20063;-81
2021/12/17 05:05:54;;;;;;;78.15;29.48;;;;;;;-141.50;100.00;63355.56;4917558;29;20069;-83
2021/12/17 05:08:23;;;;;;;81.10;29.15;;;;;;;-141.50;100.00;63355.56;4926341;29;20056;-81
2021/12/17 05:18:13;;;;;;;75.95;29.90;;;;;;;-141.50;100.00;63355.56;4927366;29;20087;-84
2021/12/17 05:19:20;;;;;;;92.15;32.97;;;;;;;-141.50;100.00;63355.56;4925865;29;20056;-81
2021/12/17 05:21:46;;;;;;;97.07;34.30;;;;;;;-141.50;100.00;63355.56;4941571;29;20070;-81
2021/12/17 05:24:13;;;;;;;99.85;34.70;;;;;;;-141.50;100.00;63355.56;4929376;29;20048;-82
2021/12/17 05:26:40;;;;;;;106.75;35.05;;;;;;;-141.50;100.00;63355.56;4945896;29;20067;-82
2021/12/17 05:29:06;;;;;;;115.03;36.53;;;;;;;-141.50;100.00;63355.56;4947487;29;20058;-80
2021/12/17 05:31:33;;;;;;;107.95;35.63;;;;;;;-141.50;100.00;63355.56;4931742;29;20088;-83
2021/12/17 05:33:59;;;;;;;117.82;36.25;;;;;;;-141.50;100.00;63355.56;4944931;29;20080;-81
2021/12/17 05:36:26;;;;;;;116.45;37.40;;;;;;;-141.50;100.00;63355.56;4931116;29;20047;-80
2021/12/17 05:38:53;;;;;;;117.80;36.42;;;;;;;-141.50;100.00;63355.56;4932507;29;20059;-83
2021/12/17 05:41:20;;;;;;;116.65;37.85;;;;;;;-141.50;100.00;63355.56;4942869;29;20052;-83
2021/12/17 05:43:54;;;;;;;129.93;38.78;;;;;;;-141.50;100.00;63355.56;4949905;29;20048;-82
2021/12/17 05:46:36;;;;;;;124.77;38.37;;;;;;;-141.50;100.00;63355.56;4965568;29;20071;-82
2021/12/17 05:49:04;;;;;;;110.63;36.00;;;;;;;-141.50;100.00;63355.56;4943711;29;20060;-82
2021/12/17 05:51:31;;;;;;;121.78;36.75;;;;;;;-141.50;100.00;63355.56;4945141;29;20079;-81
2021/12/17 05:53:58;;;;;;;103.47;34.45;;;;;;;-141.50;100.00;63355.56;4947940;29;20059;-81
2021/12/17 05:56:24;;;;;;;110.40;35.65;;;;;;;-141.50;100.00;63355.56;4952498;29;20075;-83
2021/12/17 05:58:51;;;;;;;116.05;37.95;;;;;;;-141.50;100.00;63355.56;4948313;29;20119;-81
2021/12/17 06:01:18;;;;;;;108.53;36.90;;;;;;;-141.50;100.00;63355.56;4949704;29;20060;-82
2021/12/17 06:03:44;;;;;;;108.50;35.30;;;;;;;-141.50;100.00;63355.56;4962765;29;20107;-83
2021/12/17 06:06:11;;;;;;;110.97;34.20;;;;;;;-141.50;100.00;63355.56;4943662;29;20056;-81
2021/12/17 06:08:38;;;;;;;98.43;33.33;;;;;;;-141.50;100.00;63355.56;4944960;29;20048;-82
2021/12/17 06:11:04;;;;;;;102.45;33.28;;;;;;;-141.50;100.00;63355.56;4942113;29;20048;-79
2021/12/17 06:13:31;;;;;;;107.53;35.05;;;;;;;-141.50;100.00;63355.56;4936426;29;20604;-81
2021/12/17 06:15:57;;;;;;;104.82;33.55;;;;;;;-141.50;100.00;63355.56;4938752;29;20052;-83
2021/12/17 06:18:24;;;;;;;98.93;34.22;;;;;;;-141.50;100.00;63355.56;4953238;28;20115;-82
2021/12/17 06:20:50;;;;;;;111.65;36.40;;;;;;;-141.50;100.00;63355.56;4965143;28;20054;-81
2021/12/17 06:23:17;;;;;;;111.18;35.20;;;;;;;-141.50;100.00;63355.56;4955302;29;20063;-83
2021/12/17 06:25:43;;;;;;;112.78;36.85;;;;;;;-141.50;100.00;63355.56;4956001;29;20047;-82
2021/12/17 06:28:09;;;;;;;115.10;37.70;;;;;;;-141.50;100.00;63355.56;4959488;28;20059;-83
2021/12/17 06:30:36;;;;;;;122.68;38.92;;;;;;;-141.50;100.00;63355.56;4936973;29;20138;-82
2021/12/17 06:33:02;;;;;;;118.13;37.25;;;;;;;-141.50;100.00;63355.56;4923584;29;20143;-83
2021/12/17 06:35:29;;;;;;;127.60;37.50;;;;;;;-141.50;100.00;63355.56;4911885;29;20059;-80
2021/12/17 06:37:56;;;;;;;126.15;37.35;;;;;;;-141.50;100.00;63355.56;4929534;29;20091;-78
2021/12/17 06:40:26;;;;;;;124.50;38.30;;;;;;;-141.50;100.00;63355.56;4935598;29;20047;-82
2021/12/17 06:42:52;;;;;;;109.93;35.40;;;;;;;-141.50;100.00;63355.56;4937541;29;20126;-81
2021/12/17 06:45:34;;;;;;;129.93;37.95;;;;;;;-141.50;100.00;63355.56;4949792;29;20111;-81
2021/12/17 06:48:01;;;;;;;134.35;39.58;;;;;;;-141.50;100.00;63355.56;4955509;29;20055;-80
2021/12/17 06:58:59;;;;;;;137.25;35.88;;;;;;;-141.50;100.00;63355.56;4950797;29;20500;-79
2021/12/17 07:23:35;;;;;;;119.30;37.35;;;;;;;-141.50;100.00;63355.56;4955558;28;20047;-82
2021/12/17 07:34:08;;;;;;;113.80;36.53;;;;;;;-141.50;100.00;63355.56;4973130;28;20047;-83
2021/12/17 07:36:44;;;;;;;107.07;35.55;;;;;;;-141.50;100.00;63355.56;4965800;29;20303;-82
2021/12/17 07:39:11;;;;;;;103.65;35.85;;;;;;;-141.50;100.00;63355.56;4943928;28;20487;-82
2021/12/17 07:41:39;;;;;;;110.72;36.88;;;;;;;-141.50;100.00;63355.56;4937889;29;20115;-80
2021/12/17 07:44:06;;;;;;;105.93;37.05;;;;;;;-141.50;100.00;63355.56;4951701;28;20094;-81
2021/12/17 07:46:33;;;;;;;115.00;38.53;;;;;;;-141.50;100.00;63355.56;4941362;29;20119;-83
2021/12/17 07:48:59;;;;;;;116.65;38.33;;;;;;;-141.50;100.00;63355.56;4916769;29;20466;-81
2021/12/17 07:51:26;;;;;;;111.28;37.15;;;;;;;-141.50;100.00;63355.56;4917255;29;20056;-82
2021/12/17 07:53:54;;;;;;;109.28;39.13;;;;;;;-141.50;100.00;63355.56;4916913;29;20099;-82
2021/12/17 07:56:24;;;;;;;107.43;38.15;;;;;;;-141.50;100.00;63355.56;4936070;29;20416;-82
2021/12/17 07:58:51;;;;;;;113.47;39.22;;;;;;;-141.50;100.00;63355.56;4927876;29;20052;-81
2021/12/17 08:01:19;;;;;;;100.55;39.22;;;;;;;-141.50;100.00;63355.56;4918194;29;20131;-81
2021/12/17 08:03:46;;;;;;;109.97;39.45;;;;;;;-141.50;100.00;63355.56;4917163;29;20048;-82
2021/12/17 08:06:13;;;;;;;109.13;38.13;;;;;;;-141.50;100.00;63355.56;4930391;29;20107;-82
2021/12/17 08:08:39;;;;;;;104.70;37.60;;;;;;;-141.50;100.00;63355.56;4917237;29;20059;-82
2021/12/17 08:11:07;;;;;;;96.70;36.92;;;;;;;-141.50;100.00;63355.56;4917653;29;20461;-82
2021/12/17 08:13:36;;;;;;;98.72;36.20;;;;;;;-141.50;100.00;63355.56;4924151;29;20055;-79
2021/12/17 08:16:14;;;;;;;100.95;37.17;;;;;;;-141.50;100.00;63355.56;4920437;29;20052;-81
2021/12/17 08:27:32;;;;;;;94.20;36.03;;;;;;;-141.50;100.00;63355.56;4920081;29;20052;-83
2021/12/17 08:29:56;;;;;;;90.40;35.13;;;;;;;-141.50;100.00;63355.56;4922366;29;20060;-82
2021/12/17 08:32:18;;;;;;;96.93;34.95;;;;;;;-141.50;100.00;63355.56;4919414;29;20421;-81
2021/12/17 08:34:45;;;;;;;85.18;34.20;;;;;;;-141.50;100.00;63355.56;4919653;29;20090;-82
2021/12/17 08:37:12;;;;;;;88.43;34.85;;;;;;;-141.50;100.00;63355.56;4917398;29;20064;-82
2021/12/17 08:39:39;;;;;;;87.32;31.65;;;;;;;-141.50;100.00;63355.56;4933673;29;20039;-81
2021/12/17 08:42:07;;;;;;;86.22;34.20;;;;;;;-141.50;100.00;63355.56;4934487;29;20059;-80
2021/12/17 08:44:33;;;;;;;85.43;33.80;;;;;;;-141.50;100.00;63355.56;4928427;29;20067;-82
2021/12/17 08:47:00;;;;;;;83.90;33.90;;;;;;;-141.50;100.00;63355.56;4919065;29;20190;-82
2021/12/17 08:49:26;;;;;;;79.43;32.70;;;;;;;-141.50;100.00;63355.56;4921234;29;20107;-82
2021/12/17 08:51:58;;;;;;;84.45;31.35;;;;;;;-141.50;100.00;63355.56;4919384;29;20646;-82
2021/12/17 08:54:24;;;;;;;78.25;29.05;;;;;;;-141.50;100.00;63355.56;4921804;29;20123;-81
2021/12/17 08:56:51;;;;;;;85.43;30.63;;;;;;;-141.50;100.00;63355.56;4921436;29;20052;-81
2021/12/17 08:59:17;;;;;;;73.53;29.02;;;;;;;-141.50;100.00;63355.56;4936024;28;20051;-82
2021/12/17 09:01:45;;;;;;;85.35;30.67;;;;;;;-141.50;100.00;63355.56;4961756;29;20141;-81
2021/12/17 09:04:13;;;;;;;91.07;33.70;;;;;;;-141.50;100.00;63355.56;4938978;28;20060;-82
2021/12/17 09:06:39;;;;;;;77.85;30.92;;;;;;;-141.50;100.00;63355.56;4940144;29;20060;-82
2021/12/17 09:09:06;;;;;;;71.43;29.38;;;;;;;-141.50;100.00;63355.56;4924356;29;20155;-81
2021/12/17 09:11:37;;;;;;;71.70;28.40;;;;;;;-141.50;100.00;63355.56;4921743;29;20478;-81
2021/12/17 09:14:05;;;;;;;76.20;29.50;;;;;;;-141.50;100.00;63355.56;4923110;29;20056;-82
2021/12/17 09:16:36;;;;;;;72.47;29.15;;;;;;;-141.50;100.00;63355.56;4941153;28;20250;-82
2021/12/17 09:19:04;;;;;;;78.50;29.45;;;;;;;-141.50;100.00;63355.56;4943903;29;20052;-81
2021/12/17 09:21:31;;;;;;;76.88;29.77;;;;;;;-141.50;100.00;63355.56;4957473;28;20051;-82
2021/12/17 09:23:57;;;;;;;74.80;29.92;;;;;;;-141.50;100.00;63355.56;4941541;28;20044;-82
2021/12/17 09:26:25;;;;;;;85.10;31.23;;;;;;;-141.50;100.00;63355.56;4940946;29;20058;-82
2021/12/17 09:28:51;;;;;;;78.68;32.35;;;;;;;-141.50;100.00;63355.56;4955242;28;20079;-81
2021/12/17 09:31:19;;;;;;;76.85;29.10;;;;;;;-141.50;100.00;63355.56;4931263;29;20056;-81
2021/12/17 09:33:49;;;;;;;79.97;31.67;;;;;;;-141.50;100.00;63355.56;4934876;29;20054;-81
2021/12/17 09:36:17;;;;;;;76.38;29.50;;;;;;;-141.50;100.00;63355.56;4939998;29;20055;-82
2021/12/17 09:38:46;;;;;;;79.55;29.88;;;;;;;-141.50;100.00;63355.56;4945333;29;20074;-82
2021/12/17 09:41:12;;;;;;;86.40;32.53;;;;;;;-141.50;100.00;63355.56;4959394;28;20066;-81
2021/12/17 09:43:39;;;;;;;78.95;30.38;;;;;;;-141.50;100.00;63355.56;4943253;29;20086;-81
2021/12/17 09:46:07;;;;;;;84.75;31.73;;;;;;;-141.50;100.00;63355.56;4938845;29;20055;-81
2021/12/17 09:48:35;;;;;;;82.95;30.83;;;;;;;-141.50;100.00;63355.56;4939987;29;20055;-82
2021/12/17 09:51:05;;;;;;;78.32;30.17;;;;;;;-141.50;100.00;63355.56;4937122;29;20047;-81
2021/12/17 09:53:33;;;;;;;78.60;30.38;;;;;;;-141.50;100.00;63355.56;4950777;28;20103;-81
2021/12/17 09:56:00;;;;;;;76.30;29.75;;;;;;;-141.50;100.00;63355.56;4938329;29;20071;-82
2021/12/17 09:58:27;;;;;;;79.85;30.15;;;;;;;-141.50;100.00;63355.56;4935656;29;20059;-82
2021/12/17 10:00:54;;;;;;;72.53;30.90;;;;;;;-141.50;100.00;63355.56;4937413;29;20048;-82
2021/12/17 10:03:20;;;;;;;71.00;30.20;;;;;;;-141.50;100.00;63355.56;4940974;29;20055;-82
2021/12/17 10:05:47;;;;;;;74.45;29.95;;;;;;;-141.50;100.00;63355.56;4938878;29;20654;-81
2021/12/17 10:08:17;;;;;;;68.93;28.95;;;;;;;-141.50;100.00;63355.56;4955222;28;20055;-82
2021/12/17 10:10:59;;;;;;;67.78;29.70;;;;;;;-141.50;100.00;63355.56;4954238;29;20055;-82
2021/12/17 10:13:29;;;;;;;75.65;29.42;;;;;;;-141.50;100.00;63355.56;4937764;29;20090;-80
2021/12/17 10:15:59;;;;;;;71.13;28.98;;;;;;;-141.50;100.00;63355.56;4939425;29;20079;-80
2021/12/17 10:18:34;;;;;;;64.05;28.60;;;;;;;-141.50;100.00;63355.56;4940777;29;20194;-81
2021/12/17 10:21:05;;;;;;;53.53;21.73;;;;;;;-141.50;100.00;63355.56;4940153;29;20059;-82
2021/12/17 10:23:32;;;;;;;70.25;28.80;;;;;;;-141.50;100.00;63355.56;4945763;28;20529;-83
2021/12/17 10:26:00;;;;;;;72.47;28.35;;;;;;;-141.50;100.00;63355.56;4956111;28;20098;-83
2021/12/17 10:28:28;;;;;;;62.78;28.88;;;;;;;-141.50;100.00;63355.56;4958068;29;20079;-82
2021/12/17 10:30:55;;;;;;;68.88;28.27;;;;;;;-141.50;100.00;63355.56;4953236;29;20059;-83
2021/12/17 10:33:24;;;;;;;66.30;27.05;;;;;;;-141.50;100.00;63355.56;4928293;29;20067;-84
2021/12/17 10:35:53;;;;;;;64.28;27.60;;;;;;;-141.50;100.00;63355.56;4935895;29;20167;-83
2021/12/17 10:38:24;;;;;;;64.55;26.67;;;;;;;-141.50;100.00;63355.56;4937457;29;20056;-84
2021/12/17 10:41:03;;;;;;;63.40;26.30;;;;;;;-141.50;100.00;63355.56;4941399;29;20074;-84
2021/12/17 10:43:38;;;;;;;59.90;26.80;;;;;;;-141.50;100.00;63355.56;4942763;29;20131;-82
2021/12/17 10:46:27;;;;;;;63.58;27.13;;;;;;;-141.50;100.00;63355.56;4943965;28;20047;-83
2021/12/17 10:54:08;;;;;;;68.07;28.80;;;;;;;-141.50;100.00;63355.56;4942046;28;20076;-85
2021/12/17 10:56:37;;;;;;;73.72;28.35;;;;;;;-141.50;100.00;63355.56;4949133;29;20055;-85
2021/12/17 10:59:08;;;;;;;65.45;28.52;;;;;;;-141.50;100.00;63355.56;4945423;28;20032;-83
2021/12/17 11:01:46;;;;;;;69.50;29.52;;;;;;;-141.50;100.00;63355.56;4954310;29;20055;-84
2021/12/17 11:04:17;;;;;;;67.95;29.17;;;;;;;-141.50;100.00;63355.56;4940897;29;20139;-84
2021/12/17 11:06:45;;;;;;;67.28;28.20;;;;;;;-141.50;100.00;63355.56;4939553;28;20135;-85
2021/12/17 11:09:30;;;;;;;74.05;29.08;;;;;;;-141.50;100.00;63355.56;4933767;29;20116;-85
2021/12/17 11:12:01;;;;;;;67.43;29.02;;;;;;;-141.50;100.00;63355.56;4928750;29;20055;-84
2021/12/17 11:14:29;;;;;;;61.40;28.92;;;;;;;-141.50;100.00;63355.56;4926818;29;20048;-84
2021/12/17 11:16:55;;;;;;;67.18;28.38;;;;;;;-141.50;100.00;63355.56;4930635;29;20519;-83
2021/12/17 11:19:22;;;;;;;59.17;26.88;;;;;;;-141.50;100.00;63355.56;4931328;29;20123;-83
2021/12/17 11:21:49;;;;;;;66.45;28.65;;;;;;;-141.50;100.00;63355.56;4927211;29;20082;-84
2021/12/17 11:24:16;;;;;;;61.47;27.77;;;;;;;-141.50;100.00;63355.56;4934802;29;20056;-85
2021/12/17 11:26:43;;;;;;;62.20;26.67;;;;;;;-141.50;100.00;63355.56;4930767;28;20533;-83
2021/12/17 11:29:10;;;;;;;62.97;28.83;;;;;;;-141.50;100.00;63355.56;4923710;29;20119;-83
2021/12/17 11:31:39;;;;;;;61.13;26.20;;;;;;;-141.50;100.00;63355.56;4942919;29;20159;-86
2021/12/17 11:34:09;;;;;;;66.65;26.95;;;;;;;-141.50;100.00;63355.56;4926735;29;20135;-85
2021/12/17 11:36:36;;;;;;;61.28;26.20;;;;;;;-141.50;100.00;63355.56;4931757;29;20052;-83
2021/12/17 11:39:18;;;;;;;59.45;25.13;;;;;;;-141.50;100.00;63355.56;4931476;29;20165;-84
2021/12/17 11:42:04;;;;;;;64.80;26.08;;;;;;;-141.50;100.00;63355.56;4938735;28;20056;-84
2021/12/17 11:44:40;;;;;;;62.47;25.42;;;;;;;-141.50;100.00;63355.56;4953864;28;20079;-85
2021/12/17 11:47:10;;;;;;;57.85;25.02;;;;;;;-141.50;100.00;63355.56;4945575;28;20104;-83
2021/12/17 11:49:40;;;;;;;54.53;25.52;;;;;;;-141.50;100.00;63355.56;4946459;29;20048;-85
2021/12/17 11:52:06;;;;;;;56.17;26.25;;;;;;;-141.50;100.00;63355.56;4937598;29;20492;-84
2021/12/17 11:54:35;;;;;;;59.08;25.85;;;;;;;-141.50;100.00;63355.56;4939215;29;20145;-84
2021/12/17 11:57:16;;;;;;;60.10;25.83;;;;;;;-141.50;100.00;63355.56;4947456;29;20048;-84
2021/12/17 11:59:45;;;;;;;61.15;26.55;;;;;;;-141.50;100.00;63355.56;4941643;29;20088;-85
2021/12/17 12:02:20;;;;;;;52.13;23.80;;;;;;;-141.50;100.00;63355.56;4942818;29;20052;-83
2021/12/17 12:05:00;;;;;;;54.90;23.13;;;;;;;-141.50;100.00;63355.56;4940896;29;20308;-83
2021/12/17 12:07:26;;;;;;;54.40;23.10;;;;;;;-141.50;100.00;63355.56;4940058;29;20079;-84
2021/12/17 12:09:57;;;;;;;59.25;25.38;;;;;;;-141.50;100.00;63355.56;4928621;29;20055;-84
2021/12/17 12:12:26;;;;;;;53.22;24.85;;;;;;;-141.50;100.00;63355.56;4927567;29;20059;-86
2021/12/17 12:14:54;;;;;;;56.35;24.58;;;;;;;-141.50;100.00;63355.56;4927797;29;20413;-83
2021/12/17 12:18:03;;;;;;;54.78;23.98;;;;;;;-141.50;100.00;63355.56;4925821;29;20052;-83
2021/12/17 12:20:48;;;;;;;49.30;22.27;;;;;;;-141.50;100.00;63355.56;4926131;29;20044;-84
2021/12/17 12:23:29;;;;;;;51.85;22.80;;;;;;;-141.50;100.00;63355.56;4925934;29;20080;-85
2021/12/17 12:26:02;;;;;;;49.55;21.90;;;;;;;-141.50;100.00;63355.56;4924351;29;20056;-84
2021/12/17 12:28:56;;;;;;;54.00;23.10;;;;;;;-141.50;100.00;63355.56;4919728;29;20096;-82
2021/12/17 12:31:26;;;;;;;58.45;22.85;;;;;;;-141.50;100.00;63355.56;4920842;29;20052;-85
2021/12/17 12:34:10;;;;;;;54.08;22.98;;;;;;;-141.50;100.00;63355.56;4930765;29;20103;-86
2021/12/17 12:37:10;;;;;;;50.58;20.75;;;;;;;-141.50;100.00;63355.56;4936151;28;20051;-83
2021/12/17 12:39:42;;;;;;;54.08;22.95;;;;;;;-141.50;100.00;63355.56;4937731;29;20055;-84
2021/12/17 12:42:28;;;;;;;48.90;22.15;;;;;;;-141.50;100.00;63355.56;4938157;29;20055;-87
2021/12/17 12:44:57;;;;;;;47.67;21.75;;;;;;;-141.50;100.00;63355.56;4935773;29;20107;-86
2021/12/17 12:47:24;;;;;;;48.90;22.98;;;;;;;-141.50;100.00;63355.56;4939209;29;20067;-82
2021/12/17 12:49:52;;;;;;;51.67;21.52;;;;;;;-141.50;100.00;63355.56;4941612;29;20520;-83
2021/12/17 12:52:34;;;;;;;50.83;22.27;;;;;;;-141.50;100.00;63355.56;4941853;29;20048;-81
2021/12/17 12:55:15;;;;;;;50.72;21.98;;;;;;;-141.50;100.00;63355.56;4938319;29;20048;-82
2021/12/17 12:57:48;;;;;;;55.13;23.42;;;;;;;-141.50;100.00;63355.56;4939571;29;20044;-83
2021/12/17 13:00:16;;;;;;;49.33;22.20;;;;;;;-141.50;100.00;63355.56;4937952;28;20051;-83
2021/12/17 13:02:43;;;;;;;45.55;21.50;;;;;;;-141.50;100.00;63355.56;4934321;29;20051;-83
2021/12/17 13:05:11;;;;;;;48.47;21.30;;;;;;;-141.50;100.00;63355.56;4938282;29;20051;-84
2021/12/17 13:07:47;;;;;;;46.15;21.50;;;;;;;-141.50;100.00;63355.56;4938751;28;20081;-86
2021/12/17 13:10:20;;;;;;;49.22;22.02;;;;;;;-141.50;100.00;63355.56;4952152;29;20048;-85
2021/12/17 13:12:59;;;;;;;52.72;21.88;;;;;;;-141.50;100.00;63355.56;4954607;28;20059;-83
2021/12/17 13:21:17;;;;;;;44.45;19.70;;;;;;;-141.50;100.00;63355.56;4938278;29;20369;-83
2021/12/17 13:23:53;;;;;;;43.08;19.50;;;;;;;-141.50;100.00;63355.56;4942262;29;20048;-82
2021/12/17 13:26:26;;;;;;;44.75;19.75;;;;;;;-141.50;100.00;63355.56;4956278;28;20051;-85
2021/12/17 13:29:06;;;;;;;50.22;20.15;;;;;;;-141.50;100.00;63355.56;4938380;29;20140;-81
2021/12/17 13:31:35;;;;;;;46.95;21.00;;;;;;;-141.50;100.00;63355.56;4939890;29;20504;-85
2021/12/17 13:34:30;;;;;;;42.15;18.10;;;;;;;-141.50;100.00;63355.56;4927963;28;20044;-85
2021/12/17 13:37:02;;;;;;;42.88;18.00;;;;;;;-141.50;100.00;63355.56;4940741;29;20139;-82
2021/12/17 13:39:52;;;;;;;44.33;18.33;;;;;;;-141.50;100.00;63355.56;4922374;29;20087;-85
2021/12/17 13:42:23;;;;;;;43.25;19.48;;;;;;;-141.50;100.00;63355.56;4922030;29;20048;-84
2021/12/17 13:44:49;;;;;;;42.00;18.73;;;;;;;-141.50;100.00;63355.56;4933161;29;20048;-83
2021/12/17 13:47:28;;;;;;;44.80;20.05;;;;;;;-141.50;100.00;63355.56;4927004;29;20694;-83
2021/12/17 13:50:13;;;;;;;45.58;19.33;;;;;;;-141.50;100.00;63355.56;4940470;29;20529;-83
2021/12/17 13:52:58;;;;;;;41.07;19.03;;;;;;;-141.50;100.00;63355.56;4943432;29;20440;-85
2021/12/17 13:55:31;;;;;;;43.85;18.92;;;;;;;-141.50;100.00;63355.56;4942848;29;20068;-84
2021/12/17 13:58:00;;;;;;;40.55;18.25;;;;;;;-141.50;100.00;63355.56;4955933;29;20051;-83
2021/12/17 14:00:36;;;;;;;47.50;19.08;;;;;;;-141.50;100.00;63355.56;4933895;29;20059;-83